Flight Track Log - Related Links

Times and Time Zones

All times are in EDT time to prevent confusion due to time zone crossing. See the OPT452 flight status page for this flight to view local times or setup timezone preferences in your user account.

Time Position Orientation Groundspeed Altitude Reporting Facility
EDT Latitude Longitude Course Direction KTS MPH feet Rate Location/Type
Mon 02:26:37 PM 35.1836 -101.5653 76° East 262 302 9,900  Level Albuquerque Center
Mon 02:27:39 PM 35.2008 -101.4747 77° East 271 312 11,300 1,951 Climbing Albuquerque Center
Mon 02:28:40 PM 35.2242 -101.3528 77° East 304 350 13,900 2,390 Climbing Albuquerque Center
Mon 02:29:42 PM 35.2417 -101.2550 78° East 300 345 16,200 1,839 Climbing Albuquerque Center
Mon 02:30:00 PM 35.2694 -100.9522 85° East  Level Estimated
Mon 02:30:44 PM 35.2600 -101.1592 77° East 293 337 17,700  Level Albuquerque Center
Mon 02:31:00 PM 35.2773 -100.8265 86° East  Level Estimated
Mon 02:31:46 PM 35.2792 -101.0594 77° East 299 344 19,300  Level Albuquerque Center
Mon 02:32:47 PM 35.2986 -100.9586 77° East 303 349 20,900 1,561 Climbing Albuquerque Center
Mon 02:33:49 PM 35.3172 -100.8589 77° East 302 348 22,500 1,258 Climbing Albuquerque Center
Mon 02:34:51 PM 35.3350 -100.7575 78° East 304 350 23,500 1,016 Climbing Albuquerque Center
Mon 02:35:53 PM 35.3564 -100.6406 77° East 324 373 24,600 1,122 Climbing Albuquerque Center
Mon 02:36:54 PM 35.3778 -100.5250 77° East 342 394 25,800 1,317 Climbing Albuquerque Center
Mon 02:37:56 PM 35.4031 -100.3822 78° East 354 407 27,300 1,355 Climbing Albuquerque Center
Mon 02:38:58 PM 35.4250 -100.2631 77° East 358 412 28,600 1,258 Climbing Albuquerque Center
Mon 02:40:00 PM 35.4467 -100.1439 77° East 358 412 29,900 1,220 Climbing Albuquerque Center
Mon 02:41:01 PM 35.4667 -100.0231 78° East 360 414 31,100 1,122 Climbing Albuquerque Center
Mon 02:42:03 PM 35.4883 -99.9047 77° East 357 411 32,200 1,113 Climbing Albuquerque Center
Mon 02:43:05 PM 35.5086 -99.7864 78° East 355 409 33,400 1,113 Climbing Albuquerque Center
Mon 02:44:07 PM 35.5289 -99.6714 78° East 349 402 34,500 1,073 Climbing Albuquerque Center
Mon 02:45:08 PM 35.5517 -99.5331 79° East 345 397 35,600 732 Climbing Albuquerque Center
Mon 02:46:10 PM 35.5717 -99.4158 78° East 350 403 36,000 387 Climbing Albuquerque Center
Mon 02:47:12 PM 35.5919 -99.2939 78° East 362 417 36,400 424 Climbing Albuquerque Center
Mon 02:47:49 PM 35.6039 -99.2214 79° East 366 421 36,700 485 Climbing Kansas Center
Mon 02:48:51 PM 35.6264 -99.0925 78° East 381 438 37,200 435 Climbing Kansas Center
Mon 02:49:53 PM 35.6483 -98.9631 78° East 388 447 37,600 435 Climbing Kansas Center
Mon 02:50:55 PM 35.6694 -98.8328 79° East 390 449 38,100 484 Climbing Kansas Center
Mon 02:51:57 PM 35.6961 -98.6747 78° East 394 453 38,600 435 Climbing Kansas Center
Mon 02:52:59 PM 35.7183 -98.5428 78° East 396 456 39,000 387 Climbing Kansas Center
Mon 02:54:01 PM 35.7403 -98.4100 78° East 397 457 39,400 435 Climbing Kansas Center
Mon 02:55:03 PM 35.7636 -98.2775 78° East 397 457 39,900 435 Climbing Kansas Center
Mon 02:56:05 PM 35.7833 -98.1444 80° East 397 457 40,300 432 Climbing Kansas Center
Mon 02:57:08 PM 35.8069 -98.0061 78° East 396 456 40,800 336 Climbing Kansas Center
Mon 02:58:10 PM 35.8319 -97.8728 77° East 396 456 41,000 97 Climbing Kansas Center
Mon 02:59:12 PM 35.8611 -97.7111 77° East 400 460 41,000  Level Kansas Center
Mon 03:00:14 PM 35.8872 -97.5731 77° East 408 470 41,000  Level Kansas Center
Mon 03:01:16 PM 35.9119 -97.4344 78° East 411 473 41,000  Level Kansas Center
Mon 03:02:18 PM 35.9367 -97.2964 77° East 411 473 41,000  Level Kansas Center
Mon 03:03:20 PM 35.9589 -97.1564 79° East 415 478 41,000  Level Kansas Center
Mon 03:04:22 PM 35.9558 -97.0131 91° East 420 483 41,000  Level Kansas Center
Mon 03:05:24 PM 35.9550 -96.8700 90° East 417 480 41,000  Level Kansas Center
Mon 03:06:26 PM 35.9533 -96.6994 91° East 415 478 41,000  Level Kansas Center
Mon 03:07:28 PM 35.9503 -96.5578 91° East 414 476 41,000  Level Kansas Center
Mon 03:08:30 PM 35.9481 -96.4164 91° East 414 476 41,000  Level Kansas Center
Mon 03:09:32 PM 35.9447 -96.2728 92° East 411 473 41,000  Level Kansas Center
Mon 03:10:34 PM 35.9419 -96.1339 91° East 409 471 41,000  Level Kansas Center
Mon 03:11:36 PM 35.9394 -95.9944 91° East 408 470 41,000  Level Kansas Center
Mon 03:12:38 PM 35.9369 -95.8558 91° East 407 468 41,000  Level Kansas Center
Mon 03:13:40 PM 35.9333 -95.6906 91° East 406 467 41,000  Level Kansas Center
Mon 03:14:42 PM 35.9297 -95.5522 92° East 406 467 41,000  Level Kansas Center
Mon 03:15:44 PM 35.9264 -95.4161 92° East 404 465 41,000  Level Kansas Center
Mon 03:16:46 PM 35.9239 -95.2789 91° East 402 463 41,000  Level Kansas Center
Mon 03:17:48 PM 35.9203 -95.1408 92° East 403 464 41,000  Level Kansas Center
Mon 03:18:50 PM 35.9164 -94.9750 92° East 405 466 41,000  Level Kansas Center
Mon 03:19:52 PM 35.9136 -94.8386 91° East 402 463 41,000  Level Kansas Center
Mon 03:20:50 PM 35.9097 -94.7036 92° East 404 465 41,000  Level Memphis Center
Mon 03:21:50 PM 35.9042 -94.5675 93° East 404 465 41,000  Level Memphis Center
Mon 03:22:50 PM 35.9025 -94.4289 91° East 404 465 41,000  Level Memphis Center
Mon 03:23:50 PM 35.8964 -94.2956 93° East 404 465 41,000  Level Memphis Center
Mon 03:24:50 PM 35.8944 -94.1569 91° East 404 465 41,000  Level Memphis Center
Mon 03:25:50 PM 35.8858 -94.0233 95° East 404 465 41,000  Level Memphis Center
Mon 03:26:50 PM 35.8836 -93.8875 91° East 404 465 41,000  Level Memphis Center
Mon 03:27:50 PM 35.8792 -93.7489 92° East 404 465 41,000  Level Memphis Center
Mon 03:28:50 PM 35.8725 -93.6078 93° East 404 465 41,000  Level Memphis Center
Mon 03:29:50 PM 35.8675 -93.4744 93° East 404 465 41,000  Level Memphis Center
Mon 03:30:50 PM 35.8644 -93.3386 92° East 398 458 41,000  Level Memphis Center
Mon 03:31:50 PM 35.8572 -93.2000 94° East 398 458 41,000  Level Memphis Center
Mon 03:32:50 PM 35.8519 -93.0642 93° East 398 458 41,000  Level Memphis Center
Mon 03:33:50 PM 35.8467 -92.9281 93° East 398 458 41,000  Level Memphis Center
Mon 03:34:50 PM 35.8408 -92.7922 93° East 398 458 41,000  Level Memphis Center
Mon 03:35:50 PM 35.8353 -92.6564 93° East 398 458 41,000  Level Memphis Center
Mon 03:36:50 PM 35.8292 -92.5231 93° East 398 458 41,000  Level Memphis Center
Mon 03:37:50 PM 35.8211 -92.3872 94° East 398 458 41,000  Level Memphis Center
Mon 03:38:50 PM 35.8128 -92.2539 94° East 398 458 41,000  Level Memphis Center
Mon 03:39:50 PM 35.8083 -92.1181 92° East 393 452 41,000  Level Memphis Center
Mon 03:40:50 PM 35.8019 -91.9822 93° East 393 452 41,000  Level Memphis Center
Mon 03:41:50 PM 35.7953 -91.8492 93° East 393 452 41,000  Level Memphis Center
Mon 03:42:50 PM 35.7864 -91.7133 95° East 393 452 41,000  Level Memphis Center
Mon 03:43:50 PM 35.7814 -91.5803 93° East 387 445 41,000  Level Memphis Center
Mon 03:44:50 PM 35.7722 -91.4469 95° East 387 445 41,000  Level Memphis Center
Mon 03:45:50 PM 35.7586 -91.3317 98° East 382 440 41,000  Level Memphis Center
Mon 03:46:50 PM 35.7533 -91.2011 93° East 387 445 41,000  Level Memphis Center
Mon 03:47:50 PM 35.7439 -91.0656 95° East 387 445 41,000  Level Memphis Center
Mon 03:48:50 PM 35.7361 -90.9375 94° East 387 445 41,000  Level Memphis Center
Mon 03:49:50 PM 35.7283 -90.8019 94° East 387 445 41,000  Level Memphis Center
Mon 03:50:50 PM 35.7203 -90.6717 94° East 387 445 41,000  Level Memphis Center
Mon 03:51:50 PM 35.7122 -90.5411 94° East 387 445 41,000  Level Memphis Center
Mon 03:52:50 PM 35.7019 -90.4081 95° East 387 445 41,000  Level Memphis Center
Mon 03:53:50 PM 35.6936 -90.2778 94° East 387 445 41,000  Level Memphis Center
Mon 03:54:50 PM 35.6933 -90.1319 90° East 387 445 41,000  Level Memphis Center
Mon 03:55:50 PM 35.6847 -89.9992 95° East 387 445 41,000  Level Memphis Center
Mon 03:56:50 PM 35.6758 -89.8664 95° East 387 445 41,000  Level Memphis Center
Mon 03:57:50 PM 35.6669 -89.7336 95° East 387 445 41,000  Level Memphis Center
Mon 03:58:50 PM 35.6558 -89.6008 96° East 387 445 41,000  Level Memphis Center
Mon 03:59:50 PM 35.6467 -89.4858 96° East 387 445 41,000  Level Memphis Center
Mon 04:00:50 PM 35.6372 -89.3531 95° East 387 445 41,000  Level Memphis Center
Mon 04:01:50 PM 35.6278 -89.2203 95° East 387 445 41,000  Level Memphis Center
Mon 04:02:50 PM 35.6183 -89.0853 95° East 387 445 41,000  Level Memphis Center
Mon 04:03:50 PM 35.6083 -88.9550 95° East 387 445 41,000  Level Memphis Center
Mon 04:04:50 PM 35.5964 -88.8150 96° East 387 445 41,000  Level Memphis Center
Mon 04:05:50 PM 35.5822 -88.6925 98° East 387 445 41,000  Level Memphis Center
Mon 04:06:50 PM 35.5700 -88.5575 96° East 392 451 41,000  Level Memphis Center
Mon 04:07:50 PM 35.5617 -88.4275 94° East 392 451 41,000  Level Memphis Center
Mon 04:08:50 PM 35.5514 -88.2953 95° East 386 444 41,000  Level Memphis Center
Mon 04:09:50 PM 35.5406 -88.1628 96° East 386 444 41,000  Level Memphis Center
Mon 04:10:50 PM 35.5278 -88.0228 96° East 380 437 41,000  Level Memphis Center
Mon 04:11:50 PM 35.5169 -87.9033 96° East 391 450 41,000  Level Memphis Center
Mon 04:12:50 PM 35.5058 -87.7658 96° East 391 450 41,000  Level Memphis Center
Mon 04:13:50 PM 35.4928 -87.6361 97° East 391 450 41,000  Level Memphis Center
Mon 04:14:50 PM 35.4811 -87.4989 96° East 391 450 41,000  Level Memphis Center
Mon 04:15:50 PM 35.4697 -87.3642 96° East 391 450 41,000  Level Memphis Center
Mon 04:16:50 PM 35.4558 -87.2297 97° East 386 444 41,000 -100 Level Memphis Center
Mon 04:17:50 PM 35.4442 -87.0975 96° East 386 444 40,800 -650 Descending Memphis Center
Mon 04:18:50 PM 35.4322 -86.9631 96° East 386 444 39,700 -1,150 Descending Memphis Center
Mon 04:19:50 PM 35.4203 -86.8361 97° East 386 444 38,500 -1,100 Descending Memphis Center
Mon 04:20:50 PM 35.4058 -86.6964 97° East 386 444 37,500 -1,200 Descending Memphis Center
Mon 04:21:50 PM 35.3936 -86.5672 97° East 381 438 36,100 -1,850 Descending Memphis Center
Mon 04:22:50 PM 35.3811 -86.4328 96° East 386 444 33,800 -2,400 Descending Memphis Center
Mon 04:23:50 PM 35.3683 -86.2908 96° East 397 457 31,300 -2,650 Descending Memphis Center
Mon 04:24:50 PM 35.3531 -86.1464 97° East 418 481 28,500 -2,750 Descending Memphis Center
Mon 04:25:50 PM 35.3375 -85.9997 97° East 423 487 25,800 -2,850 Descending Memphis Center
Mon 04:26:50 PM 35.3239 -85.8528 96° East 428 493 22,800 -3,100 Descending Memphis Center
Mon 04:27:50 PM 35.3103 -85.7111 97° East 422 486 19,600 -2,714 Descending Memphis Center
Mon 04:30:09 PM 35.2806 -85.4381 98° East 376 433 13,800 -2,382 Descending Atlanta Center
Mon 04:31:09 PM 35.2692 -85.3311 97° East 339 390 11,700 -2,000 Descending Atlanta Center
Mon 04:32:09 PM 35.2597 -85.2292 96° East 313 360 9,800 -1,850 Descending Atlanta Center
Mon 04:33:09 PM 35.2481 -85.1350 99° East 296 341 8,000 -1,700 Descending Atlanta Center
Mon 04:34:09 PM 35.2386 -85.0431 97° East 281 323 6,400 -1,600 Descending Atlanta Center
Mon 04:35:09 PM 35.2289 -84.9542 98° East 268 308 4,800 -1,200 Descending Atlanta Center
Mon 04:36:09 PM 35.2189 -84.8600 97° East 262 302 4,000 -800 Descending Atlanta Center

Login

Don't have an account? Register now (free) for customized features, flight alerts, and more!